Saubara, Brazil
Current Conditions -  °F | °C
As of 12:00 PM on Thursday 18 Dec 2014 (Local Time) from SBSV Reporting Station
Haze Haze  
Wind Chill: 75°   Ceiling: 900
Heat Index: 75°   Visibility: 3mi
Dew Point: 72°   Wind: 10mph
Humidity: 89%   Direction: 60°ENE
Pressure: NA   Gusts: NA
Location:  12.75°S, 38.77°W
Report Text: SBSV 181500Z 06009KT 5000 BR BKN009 FEW020TCU OVC070 24/22 Q1013
Loading
Personal Weather Stations






























Interactive Weather Map New forecast layout! Learn more

10-Day Weather Forecast

Advertisements
Track Severe Weather on mobile